FW2738 Weather Reports


Display with metric or nautical units.
time (UTC)temp
F
wind
direction
speed
MPH
gust
MPH
rain 1hr
in
rain 24hr
in
rain mn
in
humidity
%
barometer
mb
20200219111502 39 30 9.0 13.0 0.00 0.07 0.00 69 1026.4
20200219110206 39 31 7.0 12.0 0.00 0.07 0.00 68 1026.3
20200219104749 39 45 7.0 10.0 0.00 0.07 0.00 68 1026.2
20200219103139 39 36 7.0 13.0 0.00 0.07 0.00 68 1025.8
20200219101607 39 35 7.0 11.0 0.00 0.07 0.00 67 1025.7
20200219100207 40 9 7.0 12.0 0.00 0.07 0.00 67 1025.8
20200219094625 40 19 7.0 12.0 0.00 0.07 0.00 66 1025.7
20200219093148 40 5 8.0 12.0 0.00 0.07 0.00 66 1025.6
20200219091619 40 26 9.0 14.0 0.00 0.07 0.00 65 1025.8
20200219090215 41 15 9.0 14.0 0.00 0.07 0.00 65 1025.7
20200219084622 41 15 10.0 14.0 0.00 0.07 0.00 64 1025.9
20200219084522 41 15 9.0 14.0 0.00 0.07 0.00 64 1025.9
20200219083103 42 22 11.0 14.0 0.00 0.07 0.00 64 1025.9
20200219081554 42 5 10.0 15.0 0.00 0.07 0.00 64 1025.8
20200219080055 42 33 9.0 15.0 0.00 0.07 0.00 64 1026.0
20200219074543 43 10 7.0 12.0 0.00 0.07 0.00 64 1026.5
20200219073102 43 30 8.0 11.0 0.00 0.07 0.00 64 1026.6
20200219071610 43 9 8.0 13.0 0.00 0.07 0.00 63 1026.4
20200219070040 43 5 9.0 12.0 0.00 0.07 0.00 63 1026.5
20200219064604 43 360 10.0 14.0 0.00 0.07 0.00 63 1026.3
20200219063045 43 22 8.0 13.0 0.00 0.07 0.00 64 1026.2
20200219061547 43 9 8.0 12.0 0.00 0.07 0.00 64 1026.2
20200219060026 44 5 6.0 11.0 0.00 0.07 0.00 63 1026.1
20200219054531 44 32 8.0 16.0 0.00 0.07 0.07 62 1026.0
20200219053104 44 15 11.0 16.0 0.00 0.07 0.07 62 1026.0
20200219051543 44 360 10.0 15.0 0.00 0.07 0.07 62 1025.9
20200219050034 45 28 11.0 16.0 0.00 0.07 0.07 61 1025.7
20200219044556 45 17 8.0 12.0 0.00 0.07 0.07 62 1025.8
20200219043027 46 40 9.0 15.0 0.00 0.07 0.07 61 1025.6
20200219041512 46 23 10.0 16.0 0.00 0.07 0.07 60 1025.6
20200219040027 47 18 12.0 16.0 0.00 0.07 0.07 59 1025.4
20200219034532 47 25 9.0 19.0 0.00 0.07 0.07 59 1025.1
20200219033008 48 22 10.0 15.0 0.00 0.07 0.07 59 1025.0
20200219031519 48 5 11.0 16.0 0.00 0.07 0.07 59 1024.4
20200219030004 48 19 8.0 12.0 0.00 0.07 0.07 59 1024.6
20200219024503 48 21 6.0 9.0 0.00 0.07 0.07 59 1024.2
20200219023002 48 19 3.0 5.0 0.00 0.07 0.07 59 1024.3
20200219021706 49 19 2.0 4.0 0.00 0.07 0.07 58 1024.2
20200219020120 49 41 2.0 5.0 0.00 0.07 0.07 56 1024.0
20200219014632 49 48 3.0 6.0 0.00 0.07 0.07 56 1023.4
20200219013159 50 34 4.0 8.0 0.00 0.07 0.07 56 1022.9
20200219011639 50 28 4.0 9.0 0.00 0.07 0.07 55 1022.8
20200219010134 51 5 4.0 6.0 0.00 0.07 0.07 54 1022.9
20200219004708 51 44 5.0 8.0 0.00 0.07 0.07 52 1022.9
20200219003214 52 11 5.0 11.0 0.00 0.07 0.07 51 1022.9
20200219001631 52 27 8.0 15.0 0.00 0.07 0.07 50 1022.3
20200219000117 52 14 8.0 15.0 0.00 0.07 0.07 51 1021.8
20200218234629 52 13 8.0 16.0 0.00 0.07 0.07 50 1021.6
20200218233122 52 39 12.0 19.0 0.00 0.07 0.07 49 1021.3
20200218231651 53 14 10.0 19.0 0.00 0.07 0.07 49 1021.2
20200218230113 54 26 9.0 15.0 0.00 0.07 0.07 49 1020.9
20200218224718 54 28 9.0 14.0 0.00 0.07 0.07 49 1020.8
20200218223052 54 34 6.0 10.0 0.00 0.07 0.07 48 1020.7
20200218221547 53 44 6.0 14.0 0.00 0.07 0.07 50 1020.3
20200218220100 53 30 10.0 16.0 0.00 0.07 0.07 49 1019.8
20200218214538 52 39 8.0 15.0 0.00 0.07 0.07 50 1019.3
20200218213047 52 11 11.0 20.0 0.00 0.07 0.07 50 1019.0
20200218211635 52 30 15.0 22.0 0.00 0.07 0.07 49 1019.0
20200218210116 51 36 14.0 22.0 0.00 0.07 0.07 50 1019.0
20200218204548 51 19 15.0 20.0 0.00 0.07 0.07 50 1019.3
20200218203101 51 36 7.0 13.0 0.01 0.07 0.07 52 1020.6
20200218201606 51 14 13.0 23.0 0.07 0.07 0.07 52 1019.8
20200218200038 50 23 7.0 19.0 0.07 0.07 0.07 56 1019.5
20200218194543 49 22 4.0 11.0 0.07 0.07 0.07 59 1019.8
20200218193112 48 5 6.0 17.0 0.06 0.06 0.06 59 1019.5
20200218191553 50 20 16.0 24.0 0.00 0.00 0.00 53 1018.5
20200218190023 50 360 14.0 22.0 0.00 0.00 0.00 54 1018.3
20200218184523 50 360 16.0 21.0 0.00 0.00 0.00 55 1018.4
20200218183030 49 360 15.0 22.0 0.00 0.00 0.00 57 1018.3
20200218181530 49 360 15.0 24.0 0.00 0.00 0.00 58 1018.5
20200218180020 48 360 14.0 23.0 0.00 0.00 0.00 60 1018.6
20200218174528 48 360 14.0 24.0 0.00 0.00 0.00 62 1019.0
20200218173047 47 334 16.0 28.0 0.00 0.00 0.00 63 1018.6
20200218171541 47 360 16.0 22.0 0.00 0.00 0.00 63 1018.6
20200218170019 47 351 15.0 23.0 0.00 0.00 0.00 60 1018.5
20200218164511 47 360 17.0 27.0 0.00 0.00 0.00 61 1018.3
20200218163014 48 360 13.0 19.0 0.00 0.00 0.00 60 1018.0
20200218161507 48 360 20.0 26.0 0.00 0.00 0.00 61 1017.5
20200218160002 48 360 15.0 24.0 0.00 0.00 0.00 63 1017.3
20200218154804 48 360 19.0 27.0 0.00 0.00 0.00 64 1017.2
20200218153113 48 360 18.0 27.0 0.00 0.00 0.00 63 1017.1
20200218151707 49 360 15.0 28.0 0.00 0.00 0.00 62 1017.0
20200218150103 49 360 15.0 24.0 0.00 0.00 0.00 62 1016.9
20200218144611 49 360 17.0 26.0 0.00 0.00 0.00 62 1016.6
20200218143105 50 360 11.0 21.0 0.00 0.00 0.00 63 1016.3
20200218141643 50 360 15.0 24.0 0.00 0.00 0.00 64 1015.9
20200218140146 50 360 13.0 21.0 0.00 0.00 0.00 64 1015.6
20200218134541 50 360 14.0 20.0 0.00 0.00 0.00 66 1015.3
20200218133054 51 360 11.0 22.0 0.00 0.00 0.00 69 1014.7
20200218131617 51 360 16.0 23.0 0.00 0.00 0.00 72 1014.2
20200218130034 52 360 10.0 17.0 0.00 0.00 0.00 74 1014.1
20200218124528 54 360 9.0 16.0 0.00 0.00 0.00 73 1013.7
20200218123023 54 17 11.0 20.0 0.00 0.00 0.00 73 1013.2
20200218121526 55 13 9.0 18.0 0.00 0.00 0.00 72 1013.0
20200218120015 56 331 9.0 18.0 0.00 0.00 0.00 72 1012.8
20200218114518 57 19 11.0 16.0 0.00 0.00 0.00 69 1012.7
20200218113006 58 355 7.0 16.0 0.00 0.00 0.00 69 1012.5